Time;durP1;ratioP1;P1;durP2;ratioP2;P2;SDS_P1;SDS_P2;PMS_P1;PMS_P2;Temp;Humidity;BMP_temperature;BMP_pressure;BME280_temperature;BME280_humidity;BME280_pressure;Samples;Min_cycle;Max_cycle;Signal;HPM_P1;HPM_P2
2021/09/16 00:00:20;;;;;;;29.13;20.57;;;18.70;99.90;;;;;;5062367;28;20442;-87
2021/09/16 00:02:48;;;;;;;28.47;21.13;;;18.40;99.90;;;;;;5066187;28;20442;-87
2021/09/16 00:05:14;;;;;;;27.20;20.90;;;18.30;99.90;;;;;;5070230;28;20477;-87
2021/09/16 00:07:41;;;;;;;28.93;21.90;;;18.20;99.90;;;;;;5076695;28;20419;-87
2021/09/16 00:10:08;;;;;;;25.77;21.60;;;18.40;99.90;;;;;;5076141;28;20458;-86
2021/09/16 00:12:35;;;;;;;27.50;22.93;;;18.50;99.90;;;;;;5060324;28;20485;-87
2021/09/16 00:15:03;;;;;;;28.07;22.03;;;18.60;99.90;;;;;;5057301;28;20501;-87
2021/09/16 00:17:29;;;;;;;30.33;25.20;;;18.60;99.90;;;;;;5057218;28;20442;-87
2021/09/16 00:19:58;;;;;;;26.47;22.40;;;18.50;99.90;;;;;;5060391;28;20442;-87
2021/09/16 00:22:24;;;;;;;27.97;21.53;;;18.50;99.90;;;;;;5078802;28;20414;-88
2021/09/16 00:24:51;;;;;;;25.03;20.20;;;18.40;99.90;;;;;;5078679;28;20430;-89
2021/09/16 00:27:17;;;;;;;21.10;18.90;;;18.70;99.90;;;;;;5078752;28;20470;-91
2021/09/16 00:29:44;;;;;;;23.13;20.63;;;18.60;99.90;;;;;;5078924;28;20422;-89
2021/09/16 00:32:11;;;;;;;23.50;19.37;;;18.40;99.90;;;;;;5078785;28;20430;-91
2021/09/16 00:34:37;;;;;;;23.60;19.70;;;18.60;99.90;;;;;;5078368;28;20498;-88
2021/09/16 00:37:05;;;;;;;27.33;20.37;;;18.70;99.90;;;;;;5077782;28;20442;-87
2021/09/16 00:39:32;;;;;;;21.07;18.87;;;18.70;99.90;;;;;;5063182;28;20499;-87
2021/09/16 00:41:59;;;;;;;28.10;18.00;;;18.50;99.90;;;;;;5058208;28;20454;-87
2021/09/16 00:44:25;;;;;;;20.03;17.87;;;18.70;99.90;;;;;;5057156;28;20974;-87
2021/09/16 00:46:52;;;;;;;19.20;17.17;;;18.60;99.90;;;;;;5066489;28;20509;-87
2021/09/16 00:49:19;;;;;;;18.70;16.60;;;18.60;99.90;;;;;;5069242;28;20445;-88
2021/09/16 00:51:48;;;;;;;19.67;17.57;;;18.70;99.90;;;;;;5069184;28;20452;-87
2021/09/16 00:54:17;;;;;;;17.60;15.47;;;18.70;99.90;;;;;;5065998;28;20442;-87
2021/09/16 00:56:47;;;;;;;19.77;17.50;;;18.70;99.90;;;;;;5062637;28;20500;-87
2021/09/16 00:59:17;;;;;;;18.30;16.30;;;18.70;99.90;;;;;;5058825;28;20504;-87
2021/09/16 01:01:44;;;;;;;19.13;16.73;;;18.60;99.90;;;;;;5058587;28;20954;-87
2021/09/16 01:04:10;;;;;;;17.63;15.83;;;18.20;99.90;;;;;;5059996;28;20454;-87
2021/09/16 01:06:37;;;;;;;19.43;16.40;;;18.70;99.90;;;;;;5056526;28;20490;-87
2021/09/16 01:09:04;;;;;;;18.87;15.30;;;18.60;99.90;;;;;;5060008;28;20453;-87
2021/09/16 01:11:32;;;;;;;20.50;16.03;;;19.00;99.90;;;;;;5061346;28;20478;-87
2021/09/16 01:13:58;;;;;;;18.43;16.50;;;18.60;99.90;;;;;;5064589;28;20445;-87
2021/09/16 01:16:25;;;;;;;18.10;16.00;;;18.50;99.90;;;;;;5060847;28;20870;-87
2021/09/16 01:18:51;;;;;;;19.47;16.43;;;18.50;99.90;;;;;;5061877;28;20449;-87
2021/09/16 01:21:21;;;;;;;17.80;15.67;;;18.50;99.90;;;;;;5060723;28;20450;-86
2021/09/16 01:23:49;;;;;;;18.60;16.50;;;18.10;99.90;;;;;;5061828;28;20885;-87
2021/09/16 01:26:15;;;;;;;19.63;16.40;;;18.40;99.90;;;;;;5060997;28;20933;-87
2021/09/16 01:28:42;;;;;;;19.47;17.37;;;18.50;99.90;;;;;;5060556;28;20472;-87
2021/09/16 01:31:09;;;;;;;19.97;17.17;;;18.40;99.90;;;;;;5060805;28;20473;-87
2021/09/16 01:33:36;;;;;;;22.17;17.53;;;19.40;99.90;;;;;;5061598;28;20880;-88
2021/09/16 01:36:08;;;;;;;18.23;16.27;;;18.40;99.90;;;;;;5064859;28;20466;-87
2021/09/16 01:38:35;;;;;;;18.53;16.27;;;18.50;99.90;;;;;;5068729;28;20406;-89
2021/09/16 01:41:02;;;;;;;18.33;16.43;;;18.30;99.90;;;;;;5081983;28;20450;-88
2021/09/16 01:43:29;;;;;;;19.67;17.00;;;18.40;99.90;;;;;;5081752;28;20418;-87
2021/09/16 01:45:56;;;;;;;21.87;16.90;;;18.10;99.90;;;;;;5081355;28;20472;-87
2021/09/16 01:48:22;;;;;;;19.90;15.70;;;18.50;99.90;;;;;;5064052;28;20572;-87
2021/09/16 01:50:49;;;;;;;22.63;17.20;;;18.30;99.90;;;;;;5059973;28;20442;-87
2021/09/16 01:53:15;;;;;;;18.17;15.30;;;18.40;99.90;;;;;;5060341;28;20469;-87
2021/09/16 01:55:42;;;;;;;20.03;17.27;;;18.40;99.90;;;;;;5060637;28;20893;-87
2021/09/16 01:58:10;;;;;;;17.70;15.73;;;18.40;99.90;;;;;;5060816;28;20446;-87
2021/09/16 02:00:36;;;;;;;19.97;16.40;;;17.90;99.90;;;;;;5060614;28;20474;-87
2021/09/16 02:03:03;;;;;;;16.37;14.67;;;18.40;99.90;;;;;;5065959;28;20434;-86
2021/09/16 02:05:30;;;;;;;20.23;16.50;;;18.40;99.90;;;;;;5069276;28;20531;-87
2021/09/16 02:07:56;;;;;;;16.60;14.77;;;18.40;99.90;;;;;;5073590;28;20482;-87
2021/09/16 02:10:23;;;;;;;20.67;16.47;;;18.20;99.90;;;;;;5073452;28;20450;-87
2021/09/16 02:12:49;;;;;;;18.93;16.57;;;17.40;99.90;;;;;;5071175;28;20430;-87
2021/09/16 02:15:17;;;;;;;19.50;16.60;;;18.30;99.90;;;;;;5071362;28;20461;-87
2021/09/16 02:17:44;;;;;;;17.47;15.63;;;18.40;99.90;;;;;;5072106;28;20922;-87
2021/09/16 02:20:11;;;;;;;19.63;15.40;;;18.30;99.90;;;;;;5072870;28;20457;-87
2021/09/16 02:22:38;;;;;;;18.40;16.27;;;18.40;99.90;;;;;;5070733;28;20453;-87
2021/09/16 02:25:05;;;;;;;19.10;16.40;;;18.10;99.90;;;;;;5070002;28;20488;-87
2021/09/16 02:27:32;;;;;;;20.40;17.00;;;18.30;99.90;;;;;;5072119;28;20543;-87
2021/09/16 02:29:58;;;;;;;21.93;18.03;;;18.20;99.90;;;;;;5073573;28;20457;-87
2021/09/16 02:32:26;;;;;;;18.27;16.10;;;18.20;99.90;;;;;;5070979;28;20442;-86
2021/09/16 02:34:53;;;;;;;19.27;17.07;;;18.40;99.90;;;;;;5078600;28;20429;-87
2021/09/16 02:37:20;;;;;;;23.83;17.43;;;18.10;99.90;;;;;;5074721;28;20449;-86
2021/09/16 02:39:46;;;;;;;21.10;15.97;;;18.30;99.90;;;;;;5070420;28;20446;-86
2021/09/16 02:42:13;;;;;;;20.50;17.77;;;18.20;99.90;;;;;;5070186;28;20457;-87
2021/09/16 02:44:39;;;;;;;21.93;16.93;;;18.30;99.90;;;;;;5071474;28;20453;-87
2021/09/16 02:47:06;;;;;;;20.20;15.60;;;18.30;99.90;;;;;;5065894;28;20478;-86
2021/09/16 02:49:34;;;;;;;17.93;15.97;;;17.90;99.90;;;;;;5063878;28;20450;-87
2021/09/16 02:52:00;;;;;;;19.73;15.93;;;18.10;99.90;;;;;;5062160;28;20469;-87
2021/09/16 02:54:27;;;;;;;20.17;15.60;;;18.10;99.90;;;;;;5060234;28;20474;-88
2021/09/16 02:56:54;;;;;;;20.37;15.50;;;18.00;99.90;;;;;;5060993;28;20466;-88
2021/09/16 02:59:20;;;;;;;21.97;16.60;;;;;;;;;;5059376;28;20478;-88
2021/09/16 03:01:47;;;;;;;25.13;15.93;;;18.20;99.90;;;;;;5061242;28;20823;-86
2021/09/16 03:04:14;;;;;;;25.50;17.23;;;18.20;99.90;;;;;;5063240;28;20454;-86
2021/09/16 03:06:42;;;;;;;21.20;15.53;;;18.10;99.90;;;;;;5062600;28;20576;-87
2021/09/16 03:09:09;;;;;;;23.23;18.07;;;18.00;99.90;;;;;;5059494;28;20503;-87
2021/09/16 03:11:35;;;;;;;22.43;17.30;;;18.10;99.90;;;;;;5068255;28;20461;-87
2021/09/16 03:14:02;;;;;;;23.50;17.10;;;18.10;99.90;;;;;;5060418;28;20489;-87
2021/09/16 03:16:28;;;;;;;25.23;17.13;;;18.00;99.90;;;;;;5066942;28;20474;-87
2021/09/16 03:18:55;;;;;;;21.93;17.70;;;17.90;99.90;;;;;;5067705;28;20446;-88
2021/09/16 03:21:22;;;;;;;22.47;18.30;;;18.00;99.90;;;;;;5059723;28;20453;-87
2021/09/16 03:23:49;;;;;;;27.00;18.27;;;18.00;99.90;;;;;;5058282;28;20950;-88
2021/09/16 03:26:16;;;;;;;22.80;18.00;;;18.00;99.90;;;;;;5057645;28;20509;-87
2021/09/16 03:28:43;;;;;;;21.97;17.97;;;17.50;99.90;;;;;;5058364;28;20478;-87
2021/09/16 03:31:09;;;;;;;20.33;16.37;;;17.90;99.90;;;;;;5057568;28;20477;-87
2021/09/16 03:33:36;;;;;;;21.37;16.67;;;17.90;99.90;;;;;;5058220;28;20482;-87
2021/09/16 03:36:03;;;;;;;27.63;19.33;;;17.90;99.90;;;;;;5058705;28;20528;-87
2021/09/16 03:38:30;;;;;;;21.90;17.40;;;17.90;99.90;;;;;;5058413;28;20474;-87
2021/09/16 03:40:58;;;;;;;25.33;19.03;;;17.90;99.90;;;;;;5068217;28;20438;-86
2021/09/16 03:43:24;;;;;;;28.90;18.03;;;17.70;99.90;;;;;;5077628;28;20446;-86
2021/09/16 03:45:51;;;;;;;26.63;18.60;;;17.80;99.90;;;;;;5067703;28;20469;-86
2021/09/16 03:48:17;;;;;;;25.37;19.77;;;17.80;99.90;;;;;;5066337;28;20484;-87
2021/09/16 03:50:44;;;;;;;30.40;20.93;;;17.70;99.90;;;;;;5078086;28;20442;-87
2021/09/16 03:53:10;;;;;;;28.53;20.27;;;17.80;99.90;;;;;;5067033;28;20465;-87
2021/09/16 03:55:37;;;;;;;27.70;20.00;;;17.50;99.90;;;;;;5057962;28;20494;-87
2021/09/16 03:58:05;;;;;;;27.63;20.90;;;17.80;99.90;;;;;;5058815;28;20447;-86
2021/09/16 04:00:33;;;;;;;30.43;22.43;;;17.90;99.90;;;;;;5058555;28;20478;-86
2021/09/16 04:03:06;;;;;;;34.07;23.90;;;18.60;99.90;;;;;;5064910;28;20480;-88
2021/09/16 04:05:32;;;;;;;33.70;23.27;;;17.80;99.90;;;;;;5077726;28;20470;-88
2021/09/16 04:07:59;;;;;;;26.90;21.90;;;17.90;99.90;;;;;;5078567;28;20474;-88
2021/09/16 04:10:25;;;;;;;33.77;22.30;;;17.80;99.90;;;;;;5078069;28;20426;-88
2021/09/16 04:12:52;;;;;;;38.37;24.47;;;17.90;99.90;;;;;;5078379;28;20434;-88
2021/09/16 04:15:20;;;;;;;29.97;22.53;;;17.80;99.90;;;;;;5064740;28;20510;-87
2021/09/16 04:17:46;;;;;;;32.87;22.40;;;17.90;99.90;;;;;;5059304;28;20967;-87
2021/09/16 04:20:14;;;;;;;33.23;23.77;;;18.00;99.90;;;;;;5057127;28;20442;-87
2021/09/16 04:22:41;;;;;;;35.23;24.70;;;17.90;99.90;;;;;;5058073;28;20485;-87
2021/09/16 04:25:08;;;;;;;39.00;27.30;;;18.50;99.90;;;;;;5058080;28;21001;-86
2021/09/16 04:27:35;;;;;;;34.40;24.00;;;17.90;99.90;;;;;;5057031;28;20525;-87
2021/09/16 04:30:01;;;;;;;36.90;25.27;;;17.80;99.90;;;;;;5065776;28;20450;-88
2021/09/16 04:32:29;;;;;;;33.03;23.17;;;17.90;99.90;;;;;;5066820;28;20449;-88
2021/09/16 04:34:56;;;;;;;36.60;24.77;;;17.90;99.90;;;;;;5065557;28;20470;-86
2021/09/16 04:37:22;;;;;;;39.07;23.90;;;18.40;99.90;;;;;;5076438;28;20521;-87
2021/09/16 04:39:59;;;;;;;31.27;22.87;;;18.20;99.90;;;;;;5062495;28;20438;-87
2021/09/16 04:42:26;;;;;;;31.30;22.40;;;17.80;99.90;;;;;;5056957;28;20962;-86
2021/09/16 04:44:53;;;;;;;32.20;23.00;;;16.90;99.90;;;;;;5056456;28;20446;-86
2021/09/16 04:47:20;;;;;;;33.40;21.97;;;18.40;99.90;;;;;;5057043;28;20481;-86
2021/09/16 04:49:48;;;;;;;27.93;21.37;;;17.90;99.90;;;;;;5056610;28;20454;-87
2021/09/16 04:52:14;;;;;;;29.50;20.33;;;17.90;99.90;;;;;;5056114;28;20474;-87
2021/09/16 04:54:41;;;;;;;25.13;19.70;;;17.70;99.90;;;;;;5056716;28;20454;-87
2021/09/16 04:57:08;;;;;;;29.33;20.33;;;17.80;99.90;;;;;;5056639;28;20446;-87
2021/09/16 04:59:35;;;;;;;28.30;19.20;;;17.10;99.90;;;;;;5057035;28;20489;-87
2021/09/16 05:02:01;;;;;;;28.00;19.30;;;17.80;99.90;;;;;;5058066;28;20447;-87
2021/09/16 05:04:28;;;;;;;25.33;19.20;;;17.70;99.90;;;;;;5056757;28;20485;-87
2021/09/16 05:06:56;;;;;;;26.60;18.90;;;17.70;99.90;;;;;;5056690;28;20512;-87
2021/09/16 05:09:22;;;;;;;30.30;20.53;;;17.40;99.90;;;;;;5057144;28;20871;-86
2021/09/16 05:11:49;;;;;;;23.30;18.13;;;17.70;99.90;;;;;;5060314;28;20449;-87
2021/09/16 05:14:16;;;;;;;25.00;19.77;;;17.70;99.90;;;;;;5068854;28;20426;-87
2021/09/16 05:16:42;;;;;;;28.53;19.07;;;17.60;99.90;;;;;;5077853;28;20461;-86
2021/09/16 05:19:09;;;;;;;22.80;17.60;;;17.60;99.90;;;;;;5077607;28;20454;-88
2021/09/16 05:21:36;;;;;;;25.07;18.50;;;17.60;99.90;;;;;;5078596;28;20426;-89
2021/09/16 05:24:05;;;;;;;20.10;17.40;;;17.70;99.90;;;;;;5078423;28;20457;-88
2021/09/16 05:26:31;;;;;;;23.17;17.83;;;17.70;99.90;;;;;;5078463;28;20454;-88
2021/09/16 05:28:58;;;;;;;23.03;18.10;;;17.70;99.90;;;;;;5077156;28;20489;-87
2021/09/16 05:31:25;;;;;;;23.73;18.90;;;17.60;99.90;;;;;;5064768;28;20449;-87
2021/09/16 05:33:51;;;;;;;23.80;18.20;;;17.60;99.90;;;;;;5074711;28;20442;-86
2021/09/16 05:36:18;;;;;;;22.40;16.40;;;17.70;99.90;;;;;;5071402;28;20466;-86
2021/09/16 05:38:45;;;;;;;18.67;13.60;;;;;;;;;;5068874;28;20463;-87
2021/09/16 05:41:13;;;;;;;19.23;14.43;;;17.80;99.90;;;;;;5066375;28;20457;-87
2021/09/16 05:43:39;;;;;;;15.40;13.30;;;17.80;99.90;;;;;;5059027;28;20470;-87
2021/09/16 05:46:06;;;;;;;16.37;13.73;;;17.80;99.90;;;;;;5057415;28;20451;-87
2021/09/16 05:48:32;;;;;;;21.50;13.47;;;17.70;99.90;;;;;;5056644;28;20473;-87
2021/09/16 05:50:59;;;;;;;23.47;14.47;;;16.40;99.90;;;;;;5057248;28;20489;-87
2021/09/16 05:53:26;;;;;;;15.37;13.40;;;17.70;99.90;;;;;;5058964;28;20450;-87
2021/09/16 05:55:52;;;;;;;18.67;12.23;;;17.80;99.90;;;;;;5065833;28;20475;-87
2021/09/16 05:58:20;;;;;;;13.67;12.23;;;17.60;99.90;;;;;;5062356;28;20496;-87
2021/09/16 06:00:47;;;;;;;14.90;12.30;;;17.20;99.90;;;;;;5062288;28;20926;-87
2021/09/16 06:03:15;;;;;;;19.33;13.00;;;17.20;99.90;;;;;;5061286;28;20814;-87
2021/09/16 06:05:42;;;;;;;18.10;13.30;;;17.70;99.90;;;;;;5061810;28;20480;-87
2021/09/16 06:08:08;;;;;;;16.63;14.00;;;17.70;99.90;;;;;;5060641;28;20512;-87
2021/09/16 06:10:35;;;;;;;16.17;14.00;;;17.70;99.90;;;;;;5060628;28;20523;-87
2021/09/16 06:13:02;;;;;;;16.70;12.80;;;17.70;99.90;;;;;;5062319;28;20477;-86
2021/09/16 06:15:30;;;;;;;15.67;12.30;;;16.90;99.90;;;;;;5062118;28;20490;-87
2021/09/16 06:17:57;;;;;;;16.67;12.83;;;17.60;99.90;;;;;;5063879;28;20496;-87
2021/09/16 06:20:24;;;;;;;13.47;10.20;;;17.40;99.90;;;;;;5061686;28;20442;-87
2021/09/16 06:22:50;;;;;;;12.87;10.83;;;17.60;99.90;;;;;;5060577;28;20438;-87
2021/09/16 06:25:18;;;;;;;11.93;9.53;;;17.70;99.90;;;;;;5059696;28;20466;-87
2021/09/16 06:27:46;;;;;;;12.43;9.73;;;19.00;99.90;;;;;;5060636;28;20477;-87
2021/09/16 06:30:13;;;;;;;11.00;9.17;;;17.50;99.90;;;;;;5060008;28;20532;-87
2021/09/16 06:32:45;;;;;;;9.60;8.60;;;17.60;99.90;;;;;;5062936;28;20450;-87
2021/09/16 06:35:12;;;;;;;12.80;9.07;;;17.70;99.90;;;;;;5080155;28;20462;-87
2021/09/16 06:37:39;;;;;;;10.43;8.40;;;;;;;;;;5080563;28;20506;-87
2021/09/16 06:40:07;;;;;;;8.63;7.70;;;17.60;99.90;;;;;;5080177;28;20431;-87
2021/09/16 06:42:34;;;;;;;9.00;7.87;;;17.70;99.90;;;;;;5073081;28;20775;-86
2021/09/16 06:45:00;;;;;;;10.20;8.37;;;17.70;99.90;;;;;;5073910;28;20454;-87
2021/09/16 06:47:27;;;;;;;12.33;9.17;;;17.90;99.90;;;;;;5071411;28;20450;-87
2021/09/16 06:49:55;;;;;;;10.90;9.80;;;17.80;99.90;;;;;;5062068;28;20442;-87
2021/09/16 06:52:22;;;;;;;10.87;9.70;;;17.40;99.90;;;;;;5061399;28;20962;-87
2021/09/16 06:54:49;;;;;;;10.63;8.43;;;17.80;99.90;;;;;;5062681;28;20516;-87
2021/09/16 06:57:16;;;;;;;9.13;7.90;;;17.80;99.90;;;;;;5074500;28;20434;-86
2021/09/16 06:59:43;;;;;;;10.53;8.80;;;17.40;99.90;;;;;;5077566;28;20422;-87
2021/09/16 07:02:10;;;;;;;10.40;8.20;;;17.70;99.90;;;;;;5066502;28;20496;-87
2021/09/16 07:04:37;;;;;;;8.23;7.40;;;17.60;99.90;;;;;;5070950;28;20454;-87
2021/09/16 07:07:06;;;;;;;9.10;7.00;;;17.50;99.90;;;;;;5077280;28;20453;-86
2021/09/16 07:09:34;;;;;;;7.10;6.50;;;17.70;99.90;;;;;;5064523;28;20482;-87
2021/09/16 07:12:00;;;;;;;9.33;7.13;;;17.60;99.90;;;;;;5058545;28;20482;-87
2021/09/16 07:14:30;;;;;;;7.80;6.10;;;17.60;99.90;;;;;;5059213;28;20449;-87
2021/09/16 07:16:56;;;;;;;7.27;6.57;;;17.60;99.90;;;;;;5059404;28;20557;-87
2021/09/16 07:19:23;;;;;;;7.00;6.00;;;17.60;99.90;;;;;;5059502;28;20474;-87
2021/09/16 07:21:50;;;;;;;8.27;6.90;;;17.60;99.90;;;;;;5059056;28;20817;-87
2021/09/16 07:24:19;;;;;;;6.10;5.37;;;17.60;99.90;;;;;;5066662;28;20515;-87
2021/09/16 07:26:50;;;;;;;7.50;5.33;;;17.60;99.90;;;;;;5063747;28;20470;-87
2021/09/16 07:29:26;;;;;;;9.20;6.13;;;17.50;99.90;;;;;;5060500;28;20521;-87
2021/09/16 07:31:55;;;;;;;5.80;5.20;;;17.00;99.90;;;;;;5059232;28;20470;-87
2021/09/16 07:34:22;;;;;;;6.40;5.37;;;17.60;99.90;;;;;;5058689;28;20481;-87
2021/09/16 07:36:49;;;;;;;6.90;6.03;;;17.30;99.90;;;;;;5059250;28;20474;-86
2021/09/16 07:39:20;;;;;;;5.07;4.57;;;17.60;99.90;;;;;;5058826;28;20442;-87
2021/09/16 07:41:47;;;;;;;5.10;4.67;;;17.50;99.90;;;;;;5058841;28;20438;-87
2021/09/16 07:44:15;;;;;;;4.23;3.83;;;17.90;99.90;;;;;;5058504;28;20475;-86
2021/09/16 07:46:41;;;;;;;3.97;3.67;;;17.40;99.90;;;;;;5060350;28;20474;-86
2021/09/16 07:49:08;;;;;;;4.80;4.23;;;17.50;99.90;;;;;;5061080;28;20574;-86
2021/09/16 07:51:35;;;;;;;6.40;4.73;;;17.70;99.90;;;;;;5074372;28;20437;-88
2021/09/16 07:54:02;;;;;;;7.13;4.50;;;17.80;99.90;;;;;;5073154;28;20445;-87
2021/09/16 07:56:30;;;;;;;5.83;5.23;;;17.70;99.90;;;;;;5071548;28;20466;-87
2021/09/16 07:58:57;;;;;;;7.97;5.17;;;17.70;99.90;;;;;;5074489;28;20462;-87
2021/09/16 08:01:25;;;;;;;3.93;3.63;;;17.70;99.90;;;;;;5078786;28;20510;-87
2021/09/16 08:03:51;;;;;;;8.10;5.03;;;18.10;99.90;;;;;;5077732;28;20466;-86
2021/09/16 08:06:18;;;;;;;5.17;3.50;;;17.50;99.90;;;;;;5077769;28;20492;-87
2021/09/16 08:08:45;;;;;;;4.67;4.17;;;17.70;99.90;;;;;;5071704;28;20477;-87
2021/09/16 08:11:12;;;;;;;5.37;3.67;;;17.70;99.90;;;;;;5070066;28;20452;-88
2021/09/16 08:13:44;;;;;;;4.57;3.50;;;18.10;99.90;;;;;;5063592;28;20857;-86
2021/09/16 08:16:11;;;;;;;3.40;3.20;;;18.20;99.90;;;;;;5058087;28;20990;-87
2021/09/16 08:18:38;;;;;;;3.00;2.80;;;;;;;;;;5059080;28;20953;-87
2021/09/16 08:21:04;;;;;;;3.30;3.00;;;18.50;99.90;;;;;;5059906;28;20450;-87
2021/09/16 08:23:32;;;;;;;6.13;2.90;;;;;;;;;;5059726;28;20446;-87
2021/09/16 08:25:58;;;;;;;2.80;2.57;;;18.60;99.90;;;;;;5061788;28;20466;-87
2021/09/16 08:28:26;;;;;;;2.73;2.47;;;18.10;99.90;;;;;;5063365;28;20513;-87
2021/09/16 08:30:54;;;;;;;2.73;2.53;;;18.60;99.90;;;;;;5071985;28;20507;-87
2021/09/16 08:33:21;;;;;;;1.87;1.77;;;18.50;99.90;;;;;;5064559;28;20474;-87
2021/09/16 08:35:49;;;;;;;2.30;1.93;;;18.20;99.90;;;;;;5059887;28;20527;-87
2021/09/16 08:38:16;;;;;;;3.80;2.33;;;;;;;;;;5059011;28;20485;-87
2021/09/16 08:40:43;;;;;;;1.90;1.80;;;18.50;99.90;;;;;;5060192;28;20845;-87
2021/09/16 08:43:10;;;;;;;2.37;1.90;;;;;;;;;;5060116;28;20450;-87
2021/09/16 08:45:37;;;;;;;5.33;3.90;;;18.30;99.90;;;;;;5060808;28;20989;-87
2021/09/16 08:48:05;;;;;;;8.60;3.10;;;18.70;99.90;;;;;;5060886;28;20508;-87
2021/09/16 08:50:32;;;;;;;4.20;2.63;;;18.70;99.90;;;;;;5069901;28;20461;-87
2021/09/16 08:53:00;;;;;;;3.17;2.53;;;18.70;99.90;;;;;;5076661;28;20464;-87
2021/09/16 08:55:29;;;;;;;3.60;2.67;;;18.70;99.90;;;;;;5077901;28;20462;-89
2021/09/16 08:57:58;;;;;;;2.37;2.17;;;18.10;99.90;;;;;;5078235;28;20414;-88
2021/09/16 09:00:25;;;;;;;2.77;2.20;;;18.10;99.90;;;;;;5077806;28;20468;-87
2021/09/16 09:02:53;;;;;;;1.80;1.70;;;17.90;99.90;;;;;;5076905;28;20438;-88
2021/09/16 09:05:23;;;;;;;2.23;1.63;;;18.50;99.90;;;;;;5072419;28;20479;-87
2021/09/16 09:07:54;;;;;;;2.63;2.43;;;18.70;99.90;;;;;;5072149;28;20494;-87
2021/09/16 09:10:43;;;;;;;2.17;2.00;;;18.40;99.90;;;;;;5071206;28;20466;-86
2021/09/16 09:13:15;;;;;;;2.50;2.20;;;18.60;99.90;;;;;;5073511;28;20879;-88
2021/09/16 09:15:43;;;;;;;2.53;2.13;;;18.50;99.90;;;;;;5074987;28;20469;-87
2021/09/16 09:18:13;;;;;;;3.43;3.13;;;18.60;99.90;;;;;;5068527;28;20450;-87
2021/09/16 09:21:01;;;;;;;3.27;2.20;;;18.60;99.90;;;;;;5064257;28;20442;-87
2021/09/16 09:23:31;;;;;;;4.30;2.13;;;18.80;99.90;;;;;;5063120;28;20427;-87
2021/09/16 09:25:59;;;;;;;2.80;2.10;;;18.60;99.90;;;;;;5065238;28;20462;-87
2021/09/16 09:28:35;;;;;;;2.60;2.30;;;18.20;99.90;;;;;;5065667;28;20533;-87
2021/09/16 09:31:15;;;;;;;2.70;2.03;;;18.60;99.90;;;;;;5067120;28;20418;-86
2021/09/16 09:33:41;;;;;;;3.77;2.40;;;19.00;99.90;;;;;;5063192;28;20468;-87
2021/09/16 09:36:13;;;;;;;2.03;1.93;;;19.90;99.90;;;;;;5064792;28;20466;-87
2021/09/16 09:38:58;;;;;;;2.47;1.87;;;18.40;99.90;;;;;;5067485;28;20430;-86
2021/09/16 09:41:31;;;;;;;2.37;1.80;;;19.50;99.90;;;;;;5063804;28;20439;-87
2021/09/16 09:44:09;;;;;;;2.10;1.90;;;18.20;99.90;;;;;;5064797;28;20496;-87
2021/09/16 09:46:45;;;;;;;1.53;1.43;;;18.30;99.90;;;;;;5071266;28;20514;-87
2021/09/16 09:49:15;;;;;;;2.50;1.90;;;19.20;99.90;;;;;;5080907;28;20489;-89
2021/09/16 09:51:45;;;;;;;5.67;2.40;;;18.40;99.90;;;;;;5077124;28;20552;-88
2021/09/16 09:54:20;;;;;;;1.90;1.73;;;18.20;99.90;;;;;;5063747;28;20434;-87
2021/09/16 09:57:09;;;;;;;2.43;1.23;;;18.30;99.90;;;;;;5064703;28;20492;-87
2021/09/16 10:00:03;;;;;;;1.57;1.47;;;18.10;99.90;;;;;;5060971;28;20449;-87
2021/09/16 10:02:32;;;;;;;2.47;1.40;;;18.30;99.90;;;;;;5064809;28;20533;-87
2021/09/16 10:04:59;;;;;;;1.47;1.37;;;18.20;99.90;;;;;;5074639;28;20465;-87
2021/09/16 10:07:33;;;;;;;4.57;1.60;;;18.50;99.90;;;;;;5072813;28;20422;-87
2021/09/16 10:10:04;;;;;;;1.67;1.30;;;18.50;99.90;;;;;;5073133;28;20497;-87
2021/09/16 10:12:30;;;;;;;1.40;1.30;;;18.60;99.90;;;;;;5070840;28;20440;-87
2021/09/16 10:14:57;;;;;;;1.43;0.90;;;18.90;99.90;;;;;;5077634;28;20451;-85
2021/09/16 10:17:24;;;;;;;1.80;1.30;;;18.40;99.90;;;;;;5070518;28;20446;-87
2021/09/16 10:19:51;;;;;;;2.67;1.43;;;18.50;99.90;;;;;;5068763;28;20477;-86
2021/09/16 10:22:18;;;;;;;1.57;1.17;;;18.50;99.90;;;;;;5078383;28;20445;-86
2021/09/16 10:24:46;;;;;;;3.53;1.50;;;18.70;99.90;;;;;;5073319;28;20480;-87
2021/09/16 10:27:35;;;;;;;1.30;1.20;;;18.60;99.90;;;;;;5066044;28;20995;-87
2021/09/16 10:30:33;;;;;;;1.10;1.00;;;18.70;99.90;;;;;;5075603;28;20478;-87
2021/09/16 10:33:03;;;;;;;1.70;1.23;;;18.60;99.90;;;;;;5076706;28;20406;-87
2021/09/16 10:35:31;;;;;;;1.20;1.10;;;18.60;99.90;;;;;;5076228;28;20454;-86
2021/09/16 10:38:21;;;;;;;2.13;1.53;;;18.50;99.90;;;;;;5074204;28;20446;-87
2021/09/16 10:40:49;;;;;;;2.97;2.67;;;18.50;99.90;;;;;;5071144;28;20419;-86
2021/09/16 10:43:22;;;;;;;3.03;0.87;;;18.50;99.90;;;;;;5070283;28;20442;-86
2021/09/16 10:45:50;;;;;;;1.40;1.13;;;18.60;99.90;;;;;;5067588;28;20977;-86
2021/09/16 10:48:32;;;;;;;1.37;1.17;;;18.50;99.90;;;;;;5075442;28;20500;-87
2021/09/16 10:51:04;;;;;;;4.93;1.30;;;18.40;99.90;;;;;;5074598;28;20438;-87
2021/09/16 10:53:39;;;;;;;1.33;1.10;;;18.50;99.90;;;;;;5076076;28;20443;-87
2021/09/16 10:56:40;;;;;;;2.30;1.50;;;18.30;99.90;;;;;;5068134;28;20473;-87
2021/09/16 10:59:08;;;;;;;1.20;1.10;;;18.50;99.90;;;;;;5070782;28;20533;-87
2021/09/16 11:02:00;;;;;;;2.53;1.63;;;18.40;99.90;;;;;;5065987;28;20450;-87
2021/09/16 11:05:17;;;;;;;;;;;;;;;;;;;;;
2021/09/16 11:07:52;;;;;;;2.80;1.57;;;18.40;99.90;;;;;;5075643;28;20561;-83
2021/09/16 11:10:47;;;;;;;6.87;1.57;;;19.10;99.90;;;;;;5079416;28;20462;-81
2021/09/16 11:13:38;;;;;;;3.50;1.40;;;18.50;99.90;;;;;;5079119;28;20509;-83
2021/09/16 11:16:05;;;;;;;3.30;1.60;;;18.70;99.90;;;;;;5078143;28;20489;-83
2021/09/16 11:18:32;;;;;;;1.50;1.40;;;18.60;99.90;;;;;;5064854;28;20434;-84
2021/09/16 11:21:02;;;;;;;1.70;1.30;;;18.50;99.90;;;;;;5063269;28;20442;-84
2021/09/16 11:23:35;;;;;;;1.70;1.50;;;18.50;99.90;;;;;;5065590;28;20496;-83
2021/09/16 11:26:03;;;;;;;2.57;1.40;;;18.50;99.90;;;;;;5062760;28;20477;-84
2021/09/16 11:28:30;;;;;;;3.30;1.23;;;18.40;99.90;;;;;;5062337;28;20438;-83
2021/09/16 11:30:58;;;;;;;1.60;1.30;;;18.40;99.90;;;;;;5062122;28;20474;-84
2021/09/16 11:33:24;;;;;;;1.97;1.20;;;18.30;99.90;;;;;;5062109;28;20434;-82
2021/09/16 11:35:51;;;;;;;1.63;1.10;;;18.40;99.90;;;;;;5062152;28;20504;-83
2021/09/16 11:38:21;;;;;;;2.00;1.00;;;18.30;99.90;;;;;;5061771;28;20847;-84
2021/09/16 11:40:48;;;;;;;1.70;0.90;;;18.40;99.90;;;;;;5061020;28;20449;-84
2021/09/16 11:43:17;;;;;;;2.13;1.67;;;18.40;99.90;;;;;;5069361;28;20454;-83
2021/09/16 11:45:46;;;;;;;2.03;1.40;;;18.50;99.90;;;;;;5071451;28;20520;-83
2021/09/16 11:48:16;;;;;;;2.57;1.20;;;18.50;99.90;;;;;;5069961;28;20484;-83
2021/09/16 11:50:44;;;;;;;3.10;1.23;;;18.50;99.90;;;;;;5065537;28;20539;-84
2021/09/16 11:53:13;;;;;;;5.17;1.67;;;18.60;99.90;;;;;;5068606;28;20457;-82
2021/09/16 11:55:41;;;;;;;1.53;1.00;;;18.40;99.90;;;;;;5069689;28;20459;-83
2021/09/16 11:58:14;;;;;;;4.00;1.20;;;18.40;99.90;;;;;;5068536;28;20434;-82
2021/09/16 12:00:47;;;;;;;4.47;1.17;;;18.30;99.90;;;;;;5072002;28;20454;-82
2021/09/16 12:03:24;;;;;;;1.47;1.33;;;18.20;99.90;;;;;;5068275;28;20422;-83
2021/09/16 12:05:52;;;;;;;6.20;1.73;;;18.20;99.90;;;;;;5063208;28;20849;-83
2021/09/16 12:08:21;;;;;;;3.17;1.50;;;18.10;99.90;;;;;;5063238;28;20435;-84
2021/09/16 12:10:51;;;;;;;2.03;1.37;;;18.30;99.90;;;;;;5064935;28;20517;-83
2021/09/16 12:13:20;;;;;;;8.07;1.77;;;18.20;99.90;;;;;;5065065;28;21012;-84
2021/09/16 12:15:48;;;;;;;1.50;1.40;;;18.00;99.90;;;;;;5064148;28;20478;-83
2021/09/16 12:18:17;;;;;;;3.00;1.90;;;18.30;99.90;;;;;;5060760;28;20518;-83
2021/09/16 12:20:46;;;;;;;2.20;1.50;;;18.20;99.90;;;;;;5060710;28;20464;-83
2021/09/16 12:23:15;;;;;;;3.47;1.10;;;17.80;99.90;;;;;;5067886;28;20466;-83
2021/09/16 12:25:51;;;;;;;1.53;1.40;;;18.00;99.90;;;;;;5069994;28;20613;-83
2021/09/16 12:28:17;;;;;;;3.90;1.40;;;18.00;99.90;;;;;;5066810;28;20465;-83
2021/09/16 12:30:45;;;;;;;2.33;1.37;;;17.80;99.90;;;;;;5064429;28;20493;-84
2021/09/16 12:33:31;;;;;;;2.03;1.40;;;18.20;99.90;;;;;;5061460;28;20458;-83
2021/09/16 12:36:14;;;;;;;4.13;1.30;;;18.00;99.90;;;;;;5061115;28;20470;-83
2021/09/16 12:38:43;;;;;;;2.23;1.00;;;18.40;99.90;;;;;;5060544;28;20433;-83
2021/09/16 12:41:35;;;;;;;3.30;1.90;;;18.40;99.90;;;;;;5061965;28;20500;-84
2021/09/16 12:44:08;;;;;;;1.83;1.03;;;17.50;99.90;;;;;;5060713;28;20462;-83
2021/09/16 12:46:45;;;;;;;4.93;1.37;;;20.80;99.90;;;;;;5060122;28;20478;-83
2021/09/16 12:49:38;;;;;;;1.50;1.20;;;19.00;99.90;;;;;;5060120;28;20437;-84